Time;durP1;ratioP1;P1;durP2;ratioP2;P2;SDS_P1;SDS_P2;PMS_P1;PMS_P2;Temp;Humidity;BMP_temperature;BMP_pressure;BME280_temperature;BME280_humidity;BME280_pressure;Samples;Min_cycle;Max_cycle;Signal;HPM_P1;HPM_P2
2022/09/22 04:05:27;;;;;;;3.15;2.88;;;4.80;99.90;;;;;;6271171;22;20222;-66
2022/09/22 04:07:52;;;;;;;3.67;3.30;;;4.70;99.90;;;;;;6277818;22;20149;-66
2022/09/22 04:10:18;;;;;;;2.97;2.33;;;4.70;99.90;;;;;;6277895;22;20152;-65
2022/09/22 04:12:44;;;;;;;6.45;3.30;;;4.70;99.90;;;;;;6276530;22;20162;-64
2022/09/22 04:15:10;;;;;;;2.53;2.43;;;4.70;99.90;;;;;;6253038;22;20196;-65
2022/09/22 04:17:38;;;;;;;3.77;3.43;;;4.70;99.90;;;;;;6246621;23;20199;-65
2022/09/22 04:20:06;;;;;;;2.58;2.42;;;4.70;99.90;;;;;;6246577;23;20165;-65
2022/09/22 04:22:32;;;;;;;3.20;2.97;;;4.60;99.90;;;;;;6246606;23;20149;-65
2022/09/22 04:24:58;;;;;;;2.60;2.40;;;4.60;99.90;;;;;;6247408;22;20492;-65
2022/09/22 04:27:24;;;;;;;3.00;2.80;;;4.60;99.90;;;;;;6246945;23;20141;-65
2022/09/22 04:29:49;;;;;;;3.37;3.10;;;4.60;99.90;;;;;;6246668;23;20149;-65
2022/09/22 04:32:16;;;;;;;3.33;3.03;;;4.60;99.90;;;;;;6246688;23;20153;-65
2022/09/22 04:34:42;;;;;;;3.35;3.15;;;4.70;99.90;;;;;;6245008;22;20169;-66
2022/09/22 04:37:08;;;;;;;3.00;2.80;;;4.70;99.90;;;;;;6246445;23;20210;-65
2022/09/22 04:39:34;;;;;;;4.03;3.40;;;4.60;99.90;;;;;;6246250;23;20176;-66
2022/09/22 04:42:00;;;;;;;3.50;3.20;;;4.70;99.90;;;;;;6246743;23;20149;-65
2022/09/22 04:44:25;;;;;;;2.30;2.17;;;4.70;99.90;;;;;;6246122;22;20509;-65
2022/09/22 04:46:51;;;;;;;2.40;2.30;;;4.60;99.90;;;;;;6246438;23;20151;-65
2022/09/22 04:49:17;;;;;;;3.40;3.10;;;4.60;99.90;;;;;;6247027;23;20156;-65
2022/09/22 04:51:43;;;;;;;2.17;2.05;;;4.60;99.90;;;;;;6245281;23;20144;-66
2022/09/22 04:54:09;;;;;;;4.27;3.83;;;4.60;99.90;;;;;;6243853;22;20188;-65
2022/09/22 04:56:35;;;;;;;3.13;2.93;;;4.70;99.90;;;;;;6244391;23;20384;-66
2022/09/22 04:59:01;;;;;;;2.90;2.70;;;4.60;99.90;;;;;;6244431;23;20371;-65
2022/09/22 05:01:26;;;;;;;4.50;3.03;;;4.60;99.90;;;;;;6244251;23;20176;-65
2022/09/22 05:03:52;;;;;;;3.47;3.17;;;4.60;99.90;;;;;;6243760;22;20445;-65
2022/09/22 05:06:18;;;;;;;3.65;3.42;;;4.60;99.90;;;;;;6234247;23;20160;-65
2022/09/22 05:08:44;;;;;;;2.83;2.63;;;4.60;99.90;;;;;;6245038;23;20168;-65
2022/09/22 05:11:09;;;;;;;2.53;2.40;;;4.60;99.90;;;;;;6246411;23;20148;-66
2022/09/22 05:13:37;;;;;;;4.73;3.27;;;4.60;99.90;;;;;;6245874;22;20153;-65
2022/09/22 05:16:04;;;;;;;2.20;2.10;;;4.50;99.90;;;;;;6246152;22;20172;-66
2022/09/22 05:18:31;;;;;;;3.17;2.97;;;4.50;99.90;;;;;;6246453;22;20156;-67
2022/09/22 05:20:57;;;;;;;4.03;3.40;;;4.50;99.90;;;;;;6246541;22;20181;-66
2022/09/22 05:23:22;;;;;;;5.68;4.60;;;4.50;99.90;;;;;;6245758;22;20171;-67
2022/09/22 05:25:48;;;;;;;5.90;4.40;;;4.60;99.90;;;;;;6246708;23;20176;-67
2022/09/22 05:28:13;;;;;;;3.30;3.10;;;4.60;99.90;;;;;;6246458;23;20204;-67
2022/09/22 05:30:39;;;;;;;3.60;3.30;;;4.70;99.90;;;;;;6246541;23;20187;-67
2022/09/22 05:33:05;;;;;;;2.57;2.37;;;4.70;99.90;;;;;;6245926;23;20227;-67
2022/09/22 05:35:30;;;;;;;3.57;3.37;;;4.70;99.90;;;;;;6246157;22;20171;-66
2022/09/22 05:37:56;;;;;;;3.57;2.50;;;4.80;99.90;;;;;;6246666;23;20203;-67
2022/09/22 05:40:23;;;;;;;3.30;2.90;;;4.80;99.90;;;;;;6246105;23;20186;-67
2022/09/22 05:42:50;;;;;;;3.28;3.03;;;4.90;99.90;;;;;;6245831;22;20191;-67
2022/09/22 05:45:17;;;;;;;3.50;3.20;;;5.00;99.90;;;;;;6246263;22;20544;-67
2022/09/22 05:47:52;;;;;;;3.88;3.53;;;5.10;99.90;;;;;;5070473;28;20547;-66
2022/09/22 05:50:19;;;;;;;7.27;4.20;;;5.20;99.90;;;;;;5070447;28;20177;-66
2022/09/22 05:52:45;;;;;;;6.20;5.15;;;5.30;99.90;;;;;;5069919;28;20230;-66
2022/09/22 05:55:12;;;;;;;5.17;3.67;;;5.40;99.90;;;;;;5068860;28;20205;-66
2022/09/22 05:57:37;;;;;;;3.53;3.20;;;5.50;99.90;;;;;;5070460;28;20407;-67
2022/09/22 06:00:06;;;;;;;3.53;3.27;;;5.50;99.90;;;;;;5069813;28;20249;-67
2022/09/22 06:02:32;;;;;;;5.03;4.28;;;5.60;99.90;;;;;;5065384;28;20180;-67
2022/09/22 06:04:57;;;;;;;5.23;4.77;;;5.80;99.90;;;;;;5050889;28;20194;-67
2022/09/22 06:07:23;;;;;;;7.07;5.50;;;5.90;99.90;;;;;;5050264;28;20205;-67
2022/09/22 06:09:49;;;;;;;4.73;4.20;;;6.10;99.90;;;;;;5050204;28;20204;-67
2022/09/22 06:12:16;;;;;;;6.30;4.07;;;6.40;99.90;;;;;;5053198;28;20588;-68
2022/09/22 06:14:42;;;;;;;6.00;4.97;;;6.80;99.90;;;;;;5066064;28;20261;-69
2022/09/22 06:17:10;;;;;;;5.40;4.57;;;7.10;99.90;;;;;;5069865;28;20168;-68
2022/09/22 06:19:36;;;;;;;6.00;3.83;;;7.10;99.90;;;;;;5070047;28;20519;-68
2022/09/22 06:22:02;;;;;;;7.80;5.22;;;7.00;99.90;;;;;;5055038;28;20205;-66
2022/09/22 06:24:28;;;;;;;6.73;4.37;;;7.20;99.90;;;;;;5063672;28;20258;-67
2022/09/22 06:26:54;;;;;;;5.10;3.95;;;7.30;99.90;;;;;;5069893;28;20199;-67
2022/09/22 06:29:19;;;;;;;3.90;3.57;;;7.40;99.90;;;;;;5068615;28;20176;-69
2022/09/22 06:31:45;;;;;;;4.40;4.03;;;7.40;99.90;;;;;;5064173;28;20176;-67
2022/09/22 06:34:11;;;;;;;4.10;3.70;;;7.40;99.90;;;;;;5069213;28;20195;-68
2022/09/22 06:36:39;;;;;;;6.20;4.73;;;7.50;99.90;;;;;;5069679;28;20169;-64
2022/09/22 06:39:05;;;;;;;4.03;3.63;;;7.50;99.90;;;;;;5069627;28;20431;-64
2022/09/22 06:41:32;;;;;;;3.50;3.20;;;7.50;99.90;;;;;;5065043;28;20194;-70
2022/09/22 06:43:58;;;;;;;3.42;3.13;;;7.60;99.90;;;;;;5049273;28;20193;-68
2022/09/22 06:46:29;;;;;;;3.83;2.80;;;7.70;99.90;;;;;;5049574;28;20306;-67
2022/09/22 06:48:56;;;;;;;3.25;2.95;;;7.80;99.90;;;;;;5049693;28;20244;-67
2022/09/22 06:51:34;;;;;;;4.15;3.22;;;8.00;99.90;;;;;;5050186;28;20177;-66
2022/09/22 06:54:02;;;;;;;2.83;2.63;;;8.00;99.90;;;;;;5056001;28;20723;-66
2022/09/22 06:56:33;;;;;;;3.25;2.80;;;8.10;99.90;;;;;;5069434;28;20534;-66
2022/09/22 06:58:59;;;;;;;4.75;4.35;;;8.30;99.90;;;;;;5057407;28;20165;-66
2022/09/22 07:01:27;;;;;;;4.50;4.10;;;8.50;99.90;;;;;;5038966;28;20654;-67
2022/09/22 07:03:53;;;;;;;3.63;3.30;;;8.80;99.90;;;;;;5035785;28;20477;-67
2022/09/22 07:06:19;;;;;;;5.78;3.75;;;9.10;99.90;;;;;;5034812;28;20197;-67
2022/09/22 07:08:47;;;;;;;3.43;3.13;;;9.50;99.90;;;;;;5035931;28;20175;-67
2022/09/22 07:11:17;;;;;;;4.20;3.80;;;10.40;99.90;;;;;;5035760;28;20188;-67
2022/09/22 07:13:45;;;;;;;5.00;3.80;;;11.70;99.90;;;;;;5035502;28;20432;-67
2022/09/22 07:16:16;;;;;;;4.37;3.87;;;12.70;99.90;;;;;;5037054;28;20456;-67
2022/09/22 07:18:44;;;;;;;4.60;4.20;;;13.60;99.90;;;;;;5045987;28;20395;-68
2022/09/22 07:21:12;;;;;;;4.30;3.50;;;14.20;99.90;;;;;;5035616;28;20415;-67
2022/09/22 07:23:40;;;;;;;4.67;4.27;;;14.30;99.90;;;;;;5053794;28;20427;-67
2022/09/22 07:26:10;;;;;;;4.03;3.63;;;14.00;99.90;;;;;;5055456;28;20452;-68
2022/09/22 07:28:36;;;;;;;3.97;3.57;;;13.70;99.90;;;;;;5055418;28;20385;-68
2022/09/22 07:31:04;;;;;;;4.90;3.77;;;13.50;99.90;;;;;;5043292;28;20478;-68
2022/09/22 07:33:31;;;;;;;4.67;4.27;;;13.60;99.90;;;;;;5053012;28;20394;-67
2022/09/22 07:36:12;;;;;;;5.53;3.60;;;13.60;99.90;;;;;;5055187;28;20402;-68
2022/09/22 07:38:39;;;;;;;4.90;4.00;;;13.90;99.90;;;;;;5055551;28;20473;-68
2022/09/22 07:41:08;;;;;;;3.03;2.73;;;14.50;99.90;;;;;;5043862;28;20459;-69
2022/09/22 07:43:34;;;;;;;2.73;2.53;;;15.30;99.20;;;;;;5036556;28;20406;-69
2022/09/22 07:46:00;;;;;;;3.60;3.30;;;16.30;97.00;;;;;;5035043;28;20537;-67
2022/09/22 07:48:36;;;;;;;3.73;3.40;;;17.30;95.60;;;;;;5036164;28;20544;-70
2022/09/22 07:51:07;;;;;;;5.30;3.17;;;18.40;94.40;;;;;;5043745;28;20426;-69
2022/09/22 07:53:38;;;;;;;2.80;2.60;;;19.50;91.10;;;;;;5054727;28;20396;-69
2022/09/22 07:56:12;;;;;;;3.97;3.57;;;20.30;89.60;;;;;;5055390;28;20387;-70
2022/09/22 07:58:46;;;;;;;2.87;2.67;;;21.30;85.40;;;;;;5041036;28;20436;-71
2022/09/22 08:01:13;;;;;;;2.80;2.60;;;22.20;83.00;;;;;;5034980;28;20440;-70
2022/09/22 08:03:38;;;;;;;3.23;2.80;;;22.90;78.90;;;;;;5033209;28;20459;-70
2022/09/22 08:06:09;;;;;;;3.73;3.10;;;23.40;76.30;;;;;;5034791;28;20543;-70
2022/09/22 08:08:44;;;;;;;4.57;3.10;;;23.60;73.70;;;;;;5034923;28;20186;-70
2022/09/22 08:11:13;;;;;;;3.17;2.87;;;23.80;73.40;;;;;;5034196;28;20733;-70
2022/09/22 08:13:56;;;;;;;2.60;2.40;;;23.50;71.60;;;;;;5048516;28;20422;-69
2022/09/22 08:16:24;;;;;;;2.90;2.70;;;23.60;71.60;;;;;;5053785;28;20511;-70
2022/09/22 08:18:54;;;;;;;2.40;2.20;;;24.00;71.50;;;;;;5038655;28;20429;-70
2022/09/22 08:21:39;;;;;;;2.20;2.10;;;24.40;70.90;;;;;;5034712;28;20401;-70
2022/09/22 08:24:07;;;;;;;2.20;2.03;;;25.00;68.90;;;;;;5043830;28;20443;-69
2022/09/22 08:26:35;;;;;;;2.60;2.40;;;25.50;67.70;;;;;;5045330;28;20464;-70
2022/09/22 08:29:02;;;;;;;2.27;2.17;;;25.70;66.60;;;;;;5034947;28;20449;-69
2022/09/22 08:31:28;;;;;;;2.30;2.10;;;26.00;63.70;;;;;;5034477;28;20460;-69
2022/09/22 08:33:54;;;;;;;2.23;2.13;;;26.20;64.10;;;;;;5049690;28;20972;-70
2022/09/22 08:36:22;;;;;;;2.23;1.73;;;26.40;63.10;;;;;;5035299;28;20227;-70
2022/09/22 08:38:48;;;;;;;2.20;2.10;;;26.40;62.40;;;;;;5034363;28;20435;-69
2022/09/22 08:41:37;;;;;;;2.90;2.70;;;26.30;62.40;;;;;;5046073;28;20424;-69
2022/09/22 08:44:05;;;;;;;2.30;2.10;;;26.60;61.70;;;;;;5037062;28;20419;-69
2022/09/22 08:46:45;;;;;;;2.90;1.97;;;26.80;61.20;;;;;;5034034;28;20554;-70
2022/09/22 08:52:51;;;;;;;2.23;2.03;;;27.20;59.00;;;;;;5034081;28;20408;-70
2022/09/22 08:55:22;;;;;;;1.77;1.67;;;27.00;58.60;;;;;;5033798;28;20468;-69
2022/09/22 08:58:06;;;;;;;1.47;1.37;;;26.60;58.80;;;;;;5037962;28;20450;-69
2022/09/22 09:00:41;;;;;;;1.30;1.30;;;26.50;59.00;;;;;;5034137;28;20798;-70
2022/09/22 09:03:26;;;;;;;1.50;1.40;;;26.20;59.20;;;;;;5037063;28;20395;-69
2022/09/22 09:06:07;;;;;;;1.53;1.20;;;26.20;59.60;;;;;;5033490;28;20556;-69
2022/09/22 09:08:42;;;;;;;1.27;1.17;;;26.20;58.90;;;;;;5033878;28;20895;-69
2022/09/22 09:11:37;;;;;;;1.17;1.07;;;26.20;59.00;;;;;;5033590;28;20413;-70
2022/09/22 09:14:40;;;;;;;1.53;1.43;;;26.10;59.10;;;;;;5047258;28;20452;-70
2022/09/22 09:17:08;;;;;;;1.57;1.47;;;25.90;59.60;;;;;;5052603;28;20916;-70
2022/09/22 09:19:41;;;;;;;1.10;1.10;;;26.00;59.50;;;;;;5053289;28;20469;-69
2022/09/22 09:22:32;;;;;;;1.30;1.20;;;26.40;59.00;;;;;;5049314;28;20428;-69
2022/09/22 09:25:21;;;;;;;1.10;1.10;;;26.90;58.30;;;;;;5029945;28;20506;-68
2022/09/22 09:27:53;;;;;;;1.30;1.30;;;27.00;57.60;;;;;;5032647;28;20480;-69
2022/09/22 09:30:20;;;;;;;1.00;1.00;;;27.10;57.80;;;;;;5033685;28;20424;-68
2022/09/22 09:32:59;;;;;;;1.20;1.10;;;27.30;58.00;;;;;;5036783;28;20455;-69
2022/09/22 09:35:44;;;;;;;1.00;1.00;;;27.50;56.50;;;;;;5053195;28;20399;-68
2022/09/22 09:38:13;;;;;;;1.43;1.33;;;27.50;56.40;;;;;;5053296;28;20404;-67
2022/09/22 09:40:39;;;;;;;1.00;1.00;;;27.20;56.70;;;;;;5052524;28;20390;-67
2022/09/22 09:43:06;;;;;;;1.00;1.00;;;27.00;56.90;;;;;;5046377;28;20431;-69
2022/09/22 09:46:13;;;;;;;1.10;1.10;;;26.60;57.60;;;;;;5032688;28;20969;-70
2022/09/22 09:48:57;;;;;;;1.63;1.30;;;26.60;57.60;;;;;;5043545;28;20416;-69
2022/09/22 09:51:23;;;;;;;1.93;1.20;;;26.60;57.70;;;;;;5033231;28;20423;-69
2022/09/22 09:53:49;;;;;;;2.00;1.03;;;27.00;57.90;;;;;;5032799;28;20432;-69
2022/09/22 09:56:24;;;;;;;1.13;1.07;;;27.00;57.20;;;;;;5050313;28;20177;-71
2022/09/22 10:01:47;;;;;;;1.00;1.00;;;26.50;57.60;;;;;;5033125;28;20409;-69
2022/09/22 10:04:36;;;;;;;1.77;1.10;;;26.00;58.20;;;;;;5045646;28;20527;-68
2022/09/22 10:07:20;;;;;;;1.30;1.20;;;25.70;57.90;;;;;;5049862;28;20581;-68
2022/09/22 10:09:48;;;;;;;1.23;1.13;;;25.30;58.40;;;;;;5044127;28;20424;-69
2022/09/22 10:12:31;;;;;;;1.30;1.20;;;25.50;58.50;;;;;;5032784;28;20471;-68
2022/09/22 10:14:59;;;;;;;1.40;1.30;;;25.60;58.70;;;;;;5036669;28;20442;-69
2022/09/22 10:17:32;;;;;;;0.87;0.87;;;25.80;58.50;;;;;;5052852;28;20470;-69
2022/09/22 10:20:36;;;;;;;1.30;1.20;;;25.80;58.20;;;;;;5051826;28;20419;-68
2022/09/22 10:23:20;;;;;;;0.97;0.97;;;25.50;58.10;;;;;;5020394;28;20492;-67
2022/09/22 10:25:47;;;;;;;1.20;1.10;;;25.30;58.40;;;;;;5020648;28;20403;-69
2022/09/22 10:28:17;;;;;;;1.27;1.27;;;25.20;58.70;;;;;;5030770;28;20390;-68
2022/09/22 10:30:56;;;;;;;0.97;0.97;;;25.20;59.00;;;;;;5030708;28;20428;-67
2022/09/22 10:33:22;;;;;;;1.20;1.10;;;25.10;59.30;;;;;;5030624;28;20410;-68
2022/09/22 10:35:55;;;;;;;0.90;0.90;;;25.00;59.30;;;;;;5024504;28;20950;-67
2022/09/22 10:38:23;;;;;;;1.20;1.10;;;24.80;59.40;;;;;;5014607;28;20183;-68
2022/09/22 10:41:06;;;;;;;1.30;1.20;;;24.50;59.70;;;;;;5014557;28;20412;-69
2022/09/22 10:43:55;;;;;;;1.00;1.00;;;24.30;60.80;;;;;;5014174;28;20433;-68
2022/09/22 10:46:40;;;;;;;1.67;1.20;;;24.20;60.40;;;;;;5028193;28;20460;-68
2022/09/22 10:49:20;;;;;;;1.17;0.70;;;24.10;59.90;;;;;;5034307;28;20989;-68
2022/09/22 10:51:55;;;;;;;1.10;1.10;;;24.20;59.80;;;;;;5028786;28;20403;-68
2022/09/22 10:54:40;;;;;;;0.90;0.90;;;24.10;59.70;;;;;;5045152;28;20866;-69
2022/09/22 10:57:17;;;;;;;1.17;1.17;;;24.00;59.80;;;;;;5040909;28;20390;-70
2022/09/22 11:00:13;;;;;;;1.07;1.00;;;24.20;60.30;;;;;;5056124;28;20399;-69
2022/09/22 11:02:48;;;;;;;1.10;1.00;;;24.10;59.80;;;;;;5055989;28;20410;-68
2022/09/22 11:14:13;;;;;;;1.07;0.90;;;20.60;66.30;;;;;;5052657;28;20589;-67
2022/09/22 11:17:00;;;;;;;1.73;1.63;;;20.00;66.00;;;;;;5039408;28;20516;-67
2022/09/22 11:19:42;;;;;;;1.10;1.00;;;19.40;68.40;;;;;;5036142;28;20408;-69
2022/09/22 11:22:47;;;;;;;1.00;1.00;;;19.00;69.50;;;;;;5041417;28;20387;-68
2022/09/22 11:25:34;;;;;;;1.00;0.90;;;18.70;71.30;;;;;;5055148;28;20414;-69
2022/09/22 11:28:37;;;;;;;0.97;0.97;;;18.50;71.90;;;;;;5055355;28;20471;-68
2022/09/22 11:31:03;;;;;;;3.43;1.00;;;18.40;71.90;;;;;;5055376;28;20396;-69
2022/09/22 11:33:50;;;;;;;0.80;0.80;;;18.40;72.20;;;;;;5037738;28;20421;-68
2022/09/22 11:36:31;;;;;;;1.10;1.00;;;18.30;73.30;;;;;;5035503;28;20830;-68
2022/09/22 11:39:09;;;;;;;0.97;0.87;;;18.30;72.60;;;;;;5035758;28;20400;-69
2022/09/22 11:41:56;;;;;;;1.10;1.00;;;18.10;71.40;;;;;;5036486;28;20431;-69
2022/09/22 11:44:39;;;;;;;1.10;1.00;;;18.00;72.00;;;;;;5054826;28;20482;-69
2022/09/22 11:47:29;;;;;;;0.90;0.90;;;18.10;73.20;;;;;;5055113;28;20462;-68
2022/09/22 11:50:16;;;;;;;1.03;1.03;;;18.10;72.80;;;;;;5055217;28;20393;-69
2022/09/22 11:53:02;;;;;;;0.83;0.80;;;18.00;71.90;;;;;;5044391;28;20994;-68
2022/09/22 11:55:46;;;;;;;0.87;0.87;;;18.00;72.50;;;;;;5035102;28;20423;-69
2022/09/22 11:58:19;;;;;;;1.10;1.10;;;18.00;72.30;;;;;;5035034;28;20396;-69
2022/09/22 12:00:56;;;;;;;0.97;0.80;;;18.10;73.10;;;;;;5035157;28;20441;-69
2022/09/22 12:03:27;;;;;;;1.13;1.10;;;18.00;71.80;;;;;;5049444;28;20470;-69
2022/09/22 12:06:02;;;;;;;0.93;0.93;;;18.00;71.80;;;;;;5054870;28;20370;-69
2022/09/22 12:08:35;;;;;;;1.10;1.00;;;17.90;72.50;;;;;;5053650;28;20453;-68
2022/09/22 12:11:04;;;;;;;1.13;1.03;;;17.90;72.40;;;;;;5051014;28;20404;-68
2022/09/22 12:13:32;;;;;;;0.90;0.90;;;17.90;72.00;;;;;;5051141;28;20420;-67
2022/09/22 12:16:10;;;;;;;0.90;0.90;;;18.00;73.00;;;;;;5054517;28;20814;-68
2022/09/22 12:18:54;;;;;;;1.50;1.10;;;18.00;72.00;;;;;;5054393;28;20773;-68
2022/09/22 12:21:32;;;;;;;1.00;1.00;;;18.00;72.10;;;;;;5053589;28;20830;-68
2022/09/22 12:24:03;;;;;;;0.93;0.90;;;18.00;71.90;;;;;;5051198;28;20446;-67
2022/09/22 12:26:31;;;;;;;1.03;0.97;;;17.90;72.80;;;;;;5054430;28;20848;-68
2022/09/22 12:28:58;;;;;;;2.20;1.00;;;18.00;70.90;;;;;;5044204;28;20488;-68
2022/09/22 12:31:41;;;;;;;0.73;0.73;;;18.00;71.60;;;;;;5034534;28;20487;-69
2022/09/22 12:34:32;;;;;;;1.10;1.10;;;18.00;69.90;;;;;;5035659;28;20446;-69
2022/09/22 12:37:09;;;;;;;1.00;1.00;;;18.00;69.70;;;;;;5052628;28;20410;-68
2022/09/22 12:40:01;;;;;;;1.20;1.20;;;18.10;72.00;;;;;;5053313;28;20803;-65
2022/09/22 12:42:33;;;;;;;1.27;1.17;;;18.10;72.30;;;;;;5048988;28;20453;-66
2022/09/22 12:45:24;;;;;;;1.13;1.13;;;18.20;71.00;;;;;;5053347;28;20517;-66
2022/09/22 12:47:52;;;;;;;0.80;0.80;;;18.20;71.60;;;;;;5046828;28;20539;-67
2022/09/22 12:50:23;;;;;;;1.90;1.10;;;18.20;70.60;;;;;;5033335;28;20385;-68
2022/09/22 12:52:50;;;;;;;1.37;1.27;;;18.20;72.40;;;;;;5032954;28;20469;-66
2022/09/22 12:55:27;;;;;;;1.00;1.00;;;18.20;71.50;;;;;;5032514;28;21005;-67
2022/09/22 12:57:54;;;;;;;1.00;1.00;;;18.30;70.90;;;;;;5037844;28;20431;-68
2022/09/22 13:00:38;;;;;;;1.10;1.10;;;18.30;70.30;;;;;;5051364;28;20847;-68
2022/09/22 13:03:36;;;;;;;1.70;1.20;;;18.30;70.80;;;;;;5052822;28;20414;-67
2022/09/22 13:06:20;;;;;;;1.00;1.00;;;18.40;69.40;;;;;;5040445;28;20487;-67
2022/09/22 13:08:52;;;;;;;1.00;1.00;;;18.40;67.30;;;;;;5038147;28;21010;-67
2022/09/22 13:12:00;;;;;;;3.30;1.03;;;18.40;67.60;;;;;;5032774;28;20388;-68
2022/09/22 13:14:58;;;;;;;1.00;0.93;;;18.40;67.60;;;;;;5007328;28;20457;-68
2022/09/22 13:17:42;;;;;;;0.80;0.80;;;18.50;68.00;;;;;;5007663;28;20437;-67
2022/09/22 13:20:20;;;;;;;0.60;0.60;;;18.50;67.00;;;;;;5024961;28;20799;-67
2022/09/22 13:22:46;;;;;;;0.73;0.73;;;18.50;67.20;;;;;;5036972;28;20794;-67
2022/09/22 13:25:30;;;;;;;1.10;1.00;;;18.50;67.60;;;;;;5052620;28;20432;-68
2022/09/22 13:28:24;;;;;;;0.87;0.87;;;18.40;66.40;;;;;;5049551;28;21026;-68
2022/09/22 13:31:12;;;;;;;1.30;1.20;;;18.40;66.40;;;;;;5047803;28;20432;-67
2022/09/22 13:33:38;;;;;;;1.37;1.20;;;18.40;65.90;;;;;;5041380;28;20445;-69
2022/09/22 13:36:15;;;;;;;1.63;0.80;;;18.40;65.50;;;;;;5032640;28;20419;-68
2022/09/22 13:38:52;;;;;;;1.67;1.00;;;18.40;65.40;;;;;;5034111;28;20181;-69
2022/09/22 13:41:24;;;;;;;0.90;0.90;;;18.30;65.40;;;;;;5039857;28;20421;-69
2022/09/22 13:43:57;;;;;;;1.63;1.63;;;18.30;66.20;;;;;;5052247;28;20423;-69
2022/09/22 13:46:26;;;;;;;1.80;1.70;;;18.30;66.20;;;;;;5044110;28;20868;-69
2022/09/22 13:48:54;;;;;;;2.20;1.30;;;18.40;69.50;;;;;;5046175;28;20525;-69
2022/09/22 13:51:20;;;;;;;0.80;0.80;;;18.40;67.50;;;;;;5044941;28;20413;-70
2022/09/22 13:53:51;;;;;;;0.90;0.90;;;18.40;67.10;;;;;;5035516;28;20502;-69
2022/09/22 13:56:19;;;;;;;0.77;0.70;;;18.50;66.00;;;;;;5036073;28;20187;-69
2022/09/22 13:58:46;;;;;;;0.87;0.87;;;18.50;64.60;;;;;;5041781;28;20510;-69
2022/09/22 14:01:18;;;;;;;0.73;0.73;;;18.50;65.10;;;;;;5030681;28;20902;-69
2022/09/22 14:03:44;;;;;;;0.60;0.60;;;18.40;64.20;;;;;;5031273;28;20431;-70
2022/09/22 14:06:18;;;;;;;0.80;0.80;;;18.40;65.80;;;;;;5032385;28;20453;-70
2022/09/22 14:08:46;;;;;;;2.10;1.43;;;18.40;66.30;;;;;;5047732;28;20960;-69
2022/09/22 14:11:18;;;;;;;1.00;1.00;;;18.40;67.20;;;;;;5056886;28;20941;-68
2022/09/22 14:13:59;;;;;;;0.80;0.80;;;18.40;66.30;;;;;;5056300;28;20423;-69
2022/09/22 14:16:50;;;;;;;1.10;1.10;;;18.50;67.70;;;;;;5057058;28;20414;-68
2022/09/22 14:19:19;;;;;;;0.80;0.73;;;18.50;64.80;;;;;;5040105;28;20441;-69
2022/09/22 14:21:56;;;;;;;0.77;0.77;;;18.40;65.00;;;;;;5036745;28;20514;-67
2022/09/22 14:24:22;;;;;;;0.80;0.80;;;18.40;65.40;;;;;;5036361;28;20854;-68
2022/09/22 14:26:58;;;;;;;1.00;1.00;;;18.40;65.40;;;;;;5036695;28;20458;-69
2022/09/22 14:29:29;;;;;;;0.80;0.80;;;18.40;67.40;;;;;;5044363;28;20416;-65
2022/09/22 14:31:59;;;;;;;1.63;1.20;;;18.40;67.00;;;;;;5036862;28;20891;-70
2022/09/22 14:34:31;;;;;;;0.83;0.83;;;18.40;67.50;;;;;;5044291;28;20418;-70
2022/09/22 14:36:57;;;;;;;0.80;0.80;;;18.40;67.70;;;;;;5055072;28;20420;-69
2022/09/22 14:39:32;;;;;;;0.80;0.80;;;18.40;67.00;;;;;;5038641;28;20430;-70
2022/09/22 14:42:07;;;;;;;0.80;0.80;;;18.30;67.10;;;;;;5036517;28;20376;-70
2022/09/22 14:44:41;;;;;;;0.87;0.87;;;18.30;66.40;;;;;;5036022;28;20428;-69
2022/09/22 14:47:16;;;;;;;0.90;0.90;;;18.30;66.50;;;;;;5036041;28;20477;-68
2022/09/22 14:49:43;;;;;;;1.07;1.07;;;18.30;67.40;;;;;;5055260;28;20414;-68
2022/09/22 14:52:28;;;;;;;3.40;1.00;;;18.30;67.20;;;;;;5056357;28;20399;-69
2022/09/22 14:54:56;;;;;;;0.97;0.97;;;18.20;68.20;;;;;;5056135;28;20438;-67
2022/09/22 14:57:23;;;;;;;1.00;1.00;;;18.20;68.50;;;;;;5055642;28;20921;-69
2022/09/22 15:02:48;;;;;;;0.80;0.80;;;18.10;69.30;;;;;;5035618;28;20781;-67
2022/09/22 15:05:24;;;;;;;1.33;0.90;;;18.10;68.10;;;;;;5035923;28;20429;-66
2022/09/22 15:07:51;;;;;;;0.83;0.83;;;18.10;68.70;;;;;;5041351;28;20548;-67
2022/09/22 15:10:25;;;;;;;0.80;0.80;;;18.10;69.50;;;;;;5056009;28;20398;-67
2022/09/22 15:12:52;;;;;;;0.93;0.90;;;18.10;69.60;;;;;;5055430;28;20414;-65
2022/09/22 15:15:23;;;;;;;0.90;0.90;;;18.10;69.10;;;;;;5055714;28;20918;-67
2022/09/22 15:20:43;;;;;;;0.80;0.80;;;18.10;67.90;;;;;;5054873;28;20414;-67
2022/09/22 15:23:15;;;;;;;1.00;1.00;;;18.00;68.60;;;;;;5054341;28;20401;-66
2022/09/22 15:25:42;;;;;;;0.70;0.70;;;18.00;68.60;;;;;;5054822;28;20423;-67
2022/09/22 15:28:15;;;;;;;0.80;0.80;;;17.90;69.10;;;;;;5046792;28;20830;-67
2022/09/22 15:30:43;;;;;;;0.83;0.83;;;17.90;68.80;;;;;;5034002;28;20486;-67
2022/09/22 15:33:12;;;;;;;1.50;1.40;;;17.90;69.10;;;;;;5035305;28;20761;-66
2022/09/22 15:35:39;;;;;;;1.03;1.03;;;17.90;69.50;;;;;;5035538;28;20434;-64
2022/09/22 15:38:13;;;;;;;1.00;1.00;;;17.90;70.60;;;;;;5041998;28;20818;-68
2022/09/22 15:40:39;;;;;;;1.00;1.00;;;17.90;69.90;;;;;;5054835;28;20426;-66
2022/09/22 15:43:05;;;;;;;1.03;1.03;;;17.80;70.00;;;;;;5054819;28;20402;-69
2022/09/22 15:45:31;;;;;;;0.97;0.97;;;17.80;70.10;;;;;;5054885;28;20217;-65
2022/09/22 15:47:56;;;;;;;1.10;1.10;;;17.80;70.60;;;;;;5049009;28;20492;-66
2022/09/22 15:50:26;;;;;;;1.80;1.10;;;17.80;71.20;;;;;;5037681;28;20272;-65
2022/09/22 15:52:51;;;;;;;1.17;1.03;;;17.70;71.30;;;;;;5034846;28;20268;-64
2022/09/22 15:55:19;;;;;;;1.73;1.63;;;17.70;71.80;;;;;;5034753;28;20393;-63
2022/09/22 15:57:48;;;;;;;1.00;1.00;;;17.70;71.40;;;;;;5035004;28;20225;-65
2022/09/22 16:00:19;;;;;;;1.40;1.17;;;17.60;72.00;;;;;;5034565;28;20424;-64
2022/09/22 16:02:46;;;;;;;1.07;1.07;;;17.60;73.10;;;;;;5034469;28;20391;-64
2022/09/22 16:05:13;;;;;;;2.50;1.30;;;17.60;73.40;;;;;;5034235;28;20423;-63
2022/09/22 16:07:44;;;;;;;0.77;0.77;;;17.60;73.60;;;;;;5036284;28;20557;-64
2022/09/22 16:10:14;;;;;;;1.30;1.20;;;17.50;74.10;;;;;;5054381;28;20444;-65
2022/09/22 16:12:40;;;;;;;1.03;1.03;;;17.40;73.50;;;;;;5054266;28;20428;-65
2022/09/22 16:15:08;;;;;;;0.80;0.80;;;17.40;73.50;;;;;;5050060;28;20953;-63
2022/09/22 16:17:37;;;;;;;1.20;1.07;;;17.40;73.50;;;;;;5045064;28;20412;-63
2022/09/22 16:20:03;;;;;;;1.20;1.10;;;17.40;72.90;;;;;;5054476;28;20957;-64
2022/09/22 16:22:29;;;;;;;1.17;1.07;;;17.40;73.40;;;;;;5054379;28;20502;-65
2022/09/22 16:24:55;;;;;;;1.13;1.00;;;17.30;73.30;;;;;;5054632;28;21066;-64
2022/09/22 16:27:20;;;;;;;0.90;0.90;;;17.30;74.00;;;;;;5041187;28;20763;-64
2022/09/22 16:29:46;;;;;;;1.07;1.07;;;17.20;74.50;;;;;;5050840;28;20775;-65
2022/09/22 16:32:12;;;;;;;1.20;1.20;;;17.10;75.10;;;;;;5053748;28;20515;-62
2022/09/22 16:34:37;;;;;;;1.00;1.00;;;17.10;75.30;;;;;;5053822;28;20454;-65
2022/09/22 16:37:04;;;;;;;1.23;1.13;;;17.10;75.40;;;;;;5054007;28;20177;-69
2022/09/22 16:39:29;;;;;;;0.87;0.87;;;17.00;75.30;;;;;;5053116;28;20204;-69
2022/09/22 16:41:55;;;;;;;0.90;0.90;;;17.00;75.80;;;;;;5038459;28;20503;-69
2022/09/22 16:44:21;;;;;;;0.90;0.90;;;17.00;75.40;;;;;;5033705;28;20197;-69
2022/09/22 16:46:46;;;;;;;1.27;1.20;;;16.90;75.00;;;;;;5032270;28;20542;-70
2022/09/22 16:49:15;;;;;;;1.00;1.00;;;16.80;75.20;;;;;;5047693;28;20255;-69
2022/09/22 16:51:48;;;;;;;0.97;0.97;;;16.80;75.30;;;;;;5052938;28;20175;-69
2022/09/22 16:54:14;;;;;;;1.53;1.10;;;16.70;75.40;;;;;;5048138;28;20446;-70
2022/09/22 16:56:42;;;;;;;1.20;1.10;;;16.60;75.60;;;;;;5053796;28;20769;-70
2022/09/22 16:59:08;;;;;;;0.93;0.93;;;16.50;75.80;;;;;;5039889;28;20425;-70
2022/09/22 17:01:36;;;;;;;1.33;1.20;;;16.50;76.50;;;;;;5033823;28;20449;-69
2022/09/22 17:04:06;;;;;;;1.00;1.00;;;16.40;77.30;;;;;;5047538;28;20322;-72
2022/09/22 17:06:32;;;;;;;1.30;1.20;;;16.30;78.50;;;;;;5052424;28;20444;-71
2022/09/22 17:08:58;;;;;;;1.27;1.17;;;16.20;79.20;;;;;;5041489;28;20425;-72
2022/09/22 17:11:31;;;;;;;1.13;1.13;;;16.10;80.00;;;;;;5033491;28;20468;-71
2022/09/22 17:14:05;;;;;;;1.37;1.30;;;16.00;80.40;;;;;;5035882;28;20441;-70
2022/09/22 17:16:39;;;;;;;1.10;1.10;;;15.80;80.90;;;;;;5033694;28;20397;-68
2022/09/22 17:19:10;;;;;;;3.00;1.57;;;15.70;81.50;;;;;;5045399;28;20453;-70
2022/09/22 17:21:38;;;;;;;1.17;1.10;;;15.60;82.10;;;;;;5053113;28;20445;-67
2022/09/22 17:24:06;;;;;;;1.40;1.33;;;15.40;82.60;;;;;;5048053;28;20530;-70
2022/09/22 17:26:33;;;;;;;1.47;1.37;;;15.30;83.30;;;;;;5053276;28;21024;-71
2022/09/22 17:28:59;;;;;;;1.70;1.17;;;15.20;83.70;;;;;;5041652;28;20504;-70
2022/09/22 17:31:26;;;;;;;1.27;1.27;;;15.10;84.50;;;;;;5033122;28;20415;-68
2022/09/22 17:33:53;;;;;;;2.10;1.43;;;15.00;84.80;;;;;;5034713;28;20473;-71
2022/09/22 17:36:22;;;;;;;1.57;1.47;;;14.90;85.20;;;;;;5042655;28;20423;-68
2022/09/22 17:38:51;;;;;;;2.30;2.10;;;14.80;85.80;;;;;;5043904;28;20435;-67
2022/09/22 17:41:18;;;;;;;1.83;1.73;;;14.60;86.50;;;;;;5032840;28;20490;-67